Date,TemperatureHighF,TemperatureAvgF,TemperatureLowF,DewpointHighF,DewpointAvgF,DewpointLowF,HumidityHigh,HumidityAvg,HumidityLow,PressureMaxIn,PressureMinIn,WindSpeedMaxMPH,WindSpeedAvgMPH,GustSpeedMaxMPH,PrecipitationSumIn
2013-1-1,33.2,29.1,20.2,30.8,23.8,11.7,92,81,66,30.19,30.06,6,1,12,0.05
2013-1-2,29.3,19.6,11.1,16.5,11.6,5.6,82,71,53,30.31,30.16,3,0,7,0.00
2013-1-3,32.7,21.3,6.5,21.3,13.4,2.5,85,72,54,30.33,30.24,9,1,16,0.00
2013-1-4,34.9,30.2,26.9,23.2,20.6,18.2,77,67,61,30.37,30.28,24,4,24,0.00
2013-1-5,40.5,31.2,19.4,27.0,21.8,15.6,87,69,50,30.44,30.19,16,1,16,0.00
2013-1-6,38.6,34.4,27.3,31.8,27.4,22.4,90,76,69,30.35,30.03,8,2,17,0.02
2013-1-7,38.9,31.0,25.3,25.8,23.8,21.1,84,75,58,30.53,30.31,6,0,10,0.00
2013-1-8,48.8,32.2,19.5,33.0,25.1,16.8,90,76,54,30.39,30.28,7,1,16,0.00
2013-1-9,51.4,40.7,27.6,41.9,33.6,24.2,90,76,59,30.54,30.24,16,2,20,0.04
2013-1-10,41.9,35.2,25.1,31.9,28.4,22.6,94,77,64,30.61,30.20,12,0,12,0.00
2013-1-11,61.6,49.9,41.5,54.4,44.3,31.4,97,82,67,30.20,29.92,21,2,24,0.25
2013-1-12,65.3,55.5,42.9,59.6,53.6,41.6,100,94,73,30.08,29.87,14,0,15,0.02
2013-1-13,64.2,60.4,40.3,59.8,56.0,38.2,95,85,75,30.07,29.79,26,3,26,0.20
2013-1-14,40.2,31.0,26.6,37.8,24.9,21.9,91,78,70,30.46,30.07,11,1,14,0.00
2013-1-15,32.2,28.3,23.6,24.1,22.0,19.5,85,77,68,30.43,30.11,11,1,11,0.00
2013-1-16,35.5,32.4,30.4,28.8,26.8,23.5,85,80,71,30.11,29.98,14,1,14,0.01
2013-1-17,40.5,33.6,27.5,29.9,26.0,18.8,78,73,64,30.35,30.10,16,0,16,0.00
2013-1-18,36.0,27.4,14.4,21.1,16.1,9.6,87,63,49,30.57,30.27,19,2,19,0.00
2013-1-19,54.5,45.2,34.9,28.1,22.7,19.2,56,42,27,30.27,29.89,29,8,31,0.00
2013-1-20,46.5,33.8,24.2,32.6,18.2,11.7,67,53,40,30.23,29.88,30,4,30,0.00
2013-1-21,25.6,20.6,10.2,16.7,9.7,-2.4,81,62,54,30.25,30.06,27,3,28,0.00
2013-1-22,17.0,11.0,6.1,-0.6,-2.8,-5.0,64,53,41,30.42,30.25,18,2,18,0.00
2013-1-23,20.6,14.8,7.7,13.1,3.7,-1.5,82,62,39,30.40,30.13,17,1,17,0.01
2013-1-24,22.5,17.1,12.6,12.9,8.6,5.3,83,69,54,30.62,30.13,20,1,20,0.01
2013-1-25,23.5,18.8,15.6,20.0,12.3,4.3,88,76,58,30.54,30.08,10,1,10,0.12
2013-1-26,29.7,25.6,21.8,22.7,19.0,12.8,88,76,65,30.51,30.16,16,1,16,0.00
2013-1-27,34.6,25.0,9.9,27.8,16.0,4.4,86,69,57,30.55,30.29,11,0,11,0.07
2013-1-28,52.9,44.2,31.3,50.6,41.7,27.6,94,91,86,30.29,30.05,26,4,26,0.32
2013-1-29,69.8,60.0,52.5,55.8,52.5,49.4,93,77,56,30.07,29.67,27,4,27,0.02
2013-1-30,64.3,55.7,34.1,56.6,49.7,29.8,93,81,70,29.67,29.25,35,5,35,0.55
2013-1-31,34.1,26.9,20.2,29.7,18.9,11.3,88,72,55,29.96,29.45,31,5,31,0.06
2013-2-1,20.2,12.0,7.0,16.2,3.9,0.1,86,70,59,30.45,29.96,22,3,22,0.01
2013-2-2,26.7,19.1,6.9,23.8,14.3,-0.1,89,81,71,30.42,30.04,14,1,14,0.09
2013-2-3,26.1,22.6,19.9,22.5,16.8,10.3,86,78,65,30.15,29.94,18,2,18,0.03
2013-2-4,31.9,23.6,14.4,29.3,18.3,9.6,91,80,59,30.16,29.89,12,0,12,0.12
2013-2-5,33.4,31.0,28.4,29.9,26.4,22.8,90,83,71,30.02,29.89,13,1,13,0.00
2013-2-6,36.0,30.7,20.5,27.7,22.6,14.4,81,72,57,30.35,30.02,11,0,11,0.00
2013-2-7,52.3,37.3,20.3,34.4,26.8,14.6,80,67,42,30.31,29.88,7,0,7,0.00
2013-2-8,44.1,35.0,26.4,39.2,28.6,17.5,90,77,68,30.34,29.78,24,4,24,0.15
2013-2-9,38.8,29.2,21.0,22.6,18.2,14.4,78,63,43,30.48,30.33,14,0,14,0.00
2013-2-10,50.2,38.5,26.3,40.3,24.6,16.1,81,58,40,30.33,29.87,20,1,20,0.01
2013-2-11,54.8,47.2,38.6,45.5,36.3,27.4,88,67,41,30.01,29.77,31,6,37,0.00
2013-2-12,47.3,37.4,30.6,28.4,25.5,23.0,76,63,43,30.16,29.94,17,2,20,0.00
2013-2-13,36.5,30.7,27.2,29.7,25.7,21.5,89,82,72,29.95,29.77,11,0,11,0.07
2013-2-14,46.8,35.5,24.7,37.1,30.3,21.1,90,82,66,30.00,29.86,21,2,21,0.00
2013-2-15,38.2,33.3,26.4,33.1,28.1,21.1,92,81,70,30.15,29.99,12,1,12,0.09
2013-2-16,32.7,24.9,17.0,23.9,16.7,11.1,83,72,45,30.14,30.02,19,1,19,0.01
2013-2-17,27.2,18.8,11.6,12.6,8.2,4.7,80,64,45,30.32,30.10,15,1,15,0.00
2013-2-18,52.3,32.6,14.8,32.5,18.3,7.5,75,57,42,30.32,29.81,13,2,19,0.00
2013-2-19,49.5,33.4,22.5,38.6,27.1,13.9,91,78,47,30.10,29.68,20,6,39,0.27
2013-2-20,23.2,20.9,16.9,15.7,11.9,8.6,77,68,56,30.34,30.10,14,3,24,0.00
2013-2-21,29.4,24.2,20.5,18.4,15.3,11.3,77,68,60,30.42,30.25,12,1,12,0.00
2013-2-22,42.8,34.5,25.7,39.5,30.2,17.0,93,84,69,30.25,29.96,16,1,16,0.06
2013-2-23,45.4,37.5,28.8,34.1,29.1,22.6,86,72,51,30.01,29.90,18,1,18,0.00
2013-2-24,34.1,30.3,26.6,24.3,21.2,19.1,81,69,56,30.21,29.94,12,1,13,0.00
2013-2-25,46.7,34.8,21.8,27.4,22.6,16.9,82,62,40,30.25,30.01,12,1,12,0.00
2013-2-26,43.2,38.1,32.8,41.6,32.5,22.0,94,81,57,30.01,29.50,19,3,19,0.50
2013-2-27,43.2,38.1,32.9,41.3,34.3,29.8,93,86,79,29.73,29.52,24,4,24,0.16
2013-2-28,36.8,33.6,31.2,33.4,30.5,28.1,92,88,83,29.93,29.68,22,2,22,0.10
2013-3-1,33.2,31.4,27.2,30.0,25.1,19.2,88,77,67,30.06,29.92,12,2,13,0.00
2013-3-2,30.3,27.3,25.6,22.2,21.0,19.1,85,77,65,30.08,30.02,13,2,13,0.00
2013-3-3,30.3,25.9,23.6,21.0,18.2,14.4,82,73,55,30.11,30.04,12,1,12,0.00
2013-3-4,41.8,30.2,16.2,22.8,17.2,11.0,81,60,35,30.21,30.08,13,1,13,0.00
2013-3-5,41.5,35.5,30.3,31.9,26.4,20.5,92,70,50,30.11,29.53,17,2,17,0.38
2013-3-6,40.2,34.9,32.1,33.9,30.7,27.6,93,85,75,30.23,29.53,11,1,11,0.34
2013-3-7,42.5,35.7,31.8,31.7,28.1,26.4,82,74,61,30.38,30.21,11,1,11,0.00
2013-3-8,47.0,36.4,27.9,29.9,26.5,22.8,84,68,46,30.50,30.36,10,1,10,0.00
2013-3-9,58.0,41.0,24.1,32.4,27.6,20.9,90,62,33,30.44,30.10,12,1,12,0.00
2013-3-10,72.5,58.7,45.7,35.9,32.3,28.8,57,38,23,30.11,29.87,16,1,18,0.00
2013-3-11,62.6,54.5,41.6,51.5,39.6,32.8,93,61,36,29.88,29.61,27,2,29,0.51
2013-3-12,41.6,37.0,33.5,35.4,30.2,27.2,90,76,64,30.06,29.82,18,2,18,0.02
2013-3-13,33.8,30.3,27.2,30.9,24.0,17.3,90,77,62,30.29,30.00,21,2,21,0.02
2013-3-14,42.5,32.1,22.2,22.8,18.5,15.3,77,58,39,30.36,30.18,18,1,18,0.00
2013-3-15,51.6,40.2,27.9,40.2,29.3,18.8,88,65,53,30.19,29.86,17,1,17,0.05
2013-3-16,59.9,45.2,33.7,50.3,40.3,28.8,93,83,66,30.03,29.61,19,2,19,0.10
2013-3-17,38.0,34.5,31.8,29.1,26.9,24.9,83,74,60,30.21,30.03,12,1,12,0.00
2013-3-18,52.3,41.2,31.8,50.0,38.3,25.5,100,90,72,30.10,29.63,22,2,24,0.62
2013-3-19,42.1,36.9,31.8,36.7,23.8,15.2,81,60,38,30.08,29.79,33,5,33,0.00
2013-3-20,39.5,31.2,23.3,21.2,16.2,10.1,63,54,38,30.08,29.93,27,3,29,0.00
2013-3-21,31.2,24.8,18.6,19.1,13.7,8.9,82,63,46,30.04,29.96,19,2,19,0.00
2013-3-22,43.9,32.0,21.3,20.7,17.0,14.1,75,55,36,30.09,30.01,16,2,16,0.00
2013-3-23,50.4,36.2,23.2,25.9,20.8,16.1,78,56,30,30.10,29.97,13,1,13,0.00
2013-3-24,37.0,33.4,30.9,31.5,26.0,20.3,92,75,52,29.99,29.44,17,2,17,0.19
2013-3-25,34.7,33.4,32.2,32.0,30.6,28.9,93,89,84,29.89,29.42,18,2,18,0.31
2013-3-26,41.5,35.5,31.2,32.1,28.5,23.6,92,76,54,30.19,29.89,14,1,14,0.01
2013-3-27,42.8,37.4,32.5,30.4,26.1,22.0,83,65,46,30.28,30.19,17,2,17,0.00
2013-3-28,50.1,39.6,29.5,28.7,24.7,21.9,73,56,38,30.33,30.27,17,2,20,0.00
2013-3-29,55.4,41.7,27.0,31.5,27.1,21.4,82,58,37,30.34,30.23,13,1,18,0.00
2013-3-30,60.2,44.9,27.8,33.1,26.3,22.4,82,52,25,30.28,29.97,8,0,11,0.00
2013-3-31,54.7,45.3,38.8,45.6,38.0,27.8,90,76,61,29.97,29.76,17,1,17,0.03
2013-4-1,49.8,41.7,32.9,39.5,25.5,14.6,85,54,32,30.12,29.76,21,3,21,0.00
2013-4-2,45.8,34.7,24.7,19.4,15.2,12.0,59,45,28,30.28,30.12,20,2,20,0.00
2013-4-3,47.0,35.8,23.9,19.9,14.9,11.7,64,43,28,30.44,30.27,18,2,18,0.00
2013-4-4,53.8,39.0,26.3,23.1,17.1,13.0,63,43,23,30.42,30.01,10,0,10,0.00
2013-4-5,60.4,43.5,26.0,34.2,25.2,20.7,83,52,28,30.18,29.98,18,2,18,0.00
2013-4-6,62.4,44.6,28.7,22.8,19.5,11.7,69,41,18,30.29,29.96,13,1,13,0.00
2013-4-7,73.2,63.1,52.9,48.7,39.8,18.0,65,43,25,29.99,29.88,30,4,30,0.00
2013-4-8,75.1,62.9,48.8,54.4,50.4,46.8,100,67,38,29.99,29.88,28,4,28,0.02
2013-4-9,82.4,68.4,50.5,58.1,53.0,47.6,91,61,34,30.08,29.90,27,3,27,0.00
2013-4-10,83.6,73.1,60.7,62.5,58.4,55.0,84,61,46,29.94,29.78,28,4,28,0.00
2013-4-11,74.2,63.5,58.4,62.1,57.5,53.5,95,81,64,29.86,29.53,17,0,17,0.26
2013-4-12,60.2,49.7,40.6,59.6,44.4,33.2,100,83,63,29.93,29.47,25,3,25,0.34
2013-4-13,55.6,45.0,35.5,37.6,34.4,30.4,87,67,45,30.08,29.93,25,3,25,0.00
2013-4-14,67.8,49.2,30.6,41.4,35.4,28.6,93,64,32,30.16,29.93,10,0,11,0.00
2013-4-15,69.8,61.5,51.4,53.9,47.9,38.5,72,61,49,30.03,29.91,13,0,15,0.00
2013-4-16,61.2,58.5,56.5,57.6,52.8,50.0,100,82,67,30.16,29.98,4,1,17,0.67
2013-4-17,68.9,59.6,54.1,60.9,57.2,54.1,100,92,74,30.24,30.02,16,0,16,0.11
2013-4-18,86.1,69.7,57.5,62.2,57.1,49.8,93,68,29,30.05,29.64,28,3,31,0.00
2013-4-19,74.2,53.9,39.6,60.0,42.9,29.4,91,68,47,29.98,29.42,37,4,37,0.21
2013-4-20,48.5,41.0,31.6,31.7,28.3,24.4,87,62,44,30.44,29.98,21,3,21,0.01
2013-4-21,56.5,42.0,27.6,31.6,26.6,23.1,85,58,30,30.59,30.43,12,1,13,0.00
2013-4-22,70.1,53.0,34.9,42.6,33.1,24.5,69,49,27,30.43,30.17,13,0,13,0.00
2013-4-23,73.5,60.0,43.5,50.3,38.0,28.5,69,45,29,30.18,29.90,20,1,20,0.00
2013-4-24,63.5,52.1,34.0,55.8,44.4,30.8,94,77,51,30.23,29.76,24,2,25,0.44
2013-4-25,56.7,44.4,30.0,38.8,33.1,28.0,99,68,43,30.40,30.22,21,2,21,0.01
2013-4-26,64.5,47.7,28.7,39.5,32.0,25.6,91,59,29,30.50,30.37,7,0,7,0.00
2013-4-27,72.0,56.0,34.9,45.9,36.8,30.8,89,53,23,30.38,30.10,12,0,16,0.00
2013-4-28,65.0,57.8,53.5,59.0,53.3,45.5,96,85,61,30.10,29.84,13,0,13,0.73
2013-4-29,66.3,59.0,52.8,57.8,55.2,50.2,100,88,66,30.00,29.88,8,0,8,0.02
2013-4-30,78.3,62.0,46.4,58.0,52.1,44.8,100,73,44,30.09,29.99,10,0,11,0.00
2013-5-1,81.2,63.9,53.8,60.8,53.5,50.1,90,71,37,30.23,30.07,8,0,10,0.00
2013-5-2,76.7,65.6,54.2,57.0,52.2,46.6,83,63,47,30.26,30.12,11,0,16,0.00
2013-5-3,78.3,64.9,54.1,53.5,45.5,34.0,87,55,21,30.15,30.02,13,0,13,0.00
2013-5-4,71.3,62.3,54.1,49.1,43.7,38.0,62,51,39,30.09,29.98,12,0,12,0.00
2013-5-5,73.0,62.8,50.1,45.2,39.3,32.6,75,45,27,30.04,29.90,14,0,14,0.00
2013-5-6,66.8,59.8,56.0,58.2,50.0,39.8,94,71,48,29.98,29.93,11,0,11,0.30
2013-5-7,71.5,60.3,54.2,61.3,55.6,51.9,93,85,60,29.97,29.92,12,0,12,0.15
2013-5-8,75.6,63.2,54.4,56.5,53.8,51.5,93,74,44,29.97,29.90,13,0,13,0.00
2013-5-9,80.9,65.9,50.4,61.5,54.2,48.0,100,69,37,30.00,29.93,12,0,12,0.00
2013-5-10,74.4,64.1,59.2,64.1,59.4,55.3,94,85,66,29.96,29.80,25,1,25,0.48
2013-5-11,61.3,56.1,45.1,59.3,51.6,38.7,93,85,72,29.96,29.80,10,1,14,0.02
2013-5-12,55.0,46.5,36.2,39.4,33.4,28.5,92,63,41,30.13,29.97,19,2,19,0.00
2013-5-13,57.5,46.7,36.5,38.4,32.1,26.0,92,60,36,30.21,30.12,13,0,13,0.00
2013-5-14,75.4,55.7,34.4,54.4,42.3,31.8,92,65,35,30.18,29.82,21,1,21,0.00
2013-5-15,88.2,77.3,64.0,62.4,57.9,52.6,71,52,36,29.83,29.75,30,5,30,0.00
2013-5-16,75.3,69.3,62.0,64.2,59.8,52.6,93,73,46,29.98,29.78,20,1,20,0.05
2013-5-17,81.2,68.1,59.9,65.5,61.5,57.6,100,82,50,30.09,29.97,10,0,10,0.01
2013-5-18,80.5,68.0,58.9,66.1,60.8,56.6,93,79,56,30.08,29.97,7,0,7,0.01
2013-5-19,80.9,69.6,60.2,68.5,63.1,58.2,95,81,61,30.02,29.91,7,0,7,0.01
2013-5-20,85.1,72.9,64.2,72.2,67.8,62.2,100,85,58,30.01,29.88,13,0,13,0.08
2013-5-21,86.7,76.0,66.8,69.2,66.2,60.6,95,74,47,29.93,29.79,17,1,17,0.00
2013-5-22,80.5,72.5,63.2,65.2,62.1,59.4,90,71,55,29.85,29.74,22,1,22,0.02
2013-5-23,74.7,64.5,49.1,63.9,58.0,43.7,94,81,51,30.02,29.77,19,3,19,0.09
2013-5-24,58.9,50.2,41.9,44.2,38.6,35.0,84,66,43,30.34,30.02,20,3,20,0.00
2013-5-25,65.5,51.0,34.0,44.5,38.6,31.9,95,66,38,30.40,30.25,7,1,13,0.00
2013-5-26,72.5,55.9,37.5,43.8,36.5,29.0,92,54,24,30.34,30.21,5,0,8,0.00
2013-5-27,68.3,56.9,44.5,52.4,46.3,38.8,85,69,44,30.26,30.03,8,0,12,0.03
2013-5-28,83.4,73.0,61.5,64.4,59.8,52.4,84,65,46,30.03,29.93,17,2,24,0.01
2013-5-29,87.2,76.9,67.6,63.3,60.8,57.9,81,59,39,30.06,29.97,16,2,25,0.00
2013-5-30,89.0,75.9,61.6,68.0,62.5,57.9,94,66,38,30.16,30.02,7,0,12,0.00
2013-5-31,89.3,73.6,60.4,66.9,63.1,58.1,95,73,45,30.07,29.94,13,1,29,0.42
2013-6-1,83.8,74.1,65.0,69.2,66.8,63.8,100,80,57,29.97,29.76,11,1,24,0.04
2013-6-2,80.3,72.1,65.3,68.8,61.7,56.6,93,71,46,29.88,29.76,11,2,20,0.16
2013-6-3,69.4,63.7,54.1,60.0,55.5,49.1,88,75,61,30.07,29.87,8,1,11,0.00
2013-6-4,77.2,61.5,41.8,51.4,45.7,39.2,94,60,34,30.17,30.07,6,0,11,0.00
2013-6-5,83.4,68.8,52.8,65.2,54.4,46.5,88,62,41,30.11,29.86,5,0,7,0.01
2013-6-6,72.8,67.8,62.9,68.1,65.0,59.9,100,91,79,29.87,29.75,4,0,11,0.65
2013-6-7,72.3,61.6,56.5,59.6,56.3,53.4,94,83,61,29.89,29.79,5,1,11,0.00
2013-6-8,78.6,65.2,52.9,59.4,55.0,50.9,95,72,46,30.07,29.88,5,0,7,0.00
2013-6-9,83.2,72.7,62.6,66.8,62.9,58.0,88,73,44,30.10,29.93,6,0,8,0.01
2013-6-10,77.4,68.6,63.7,67.5,64.8,61.3,98,88,66,29.93,29.76,19,1,19,0.18
2013-6-11,84.9,72.1,63.5,66.5,63.2,61.0,93,75,49,29.93,29.82,14,1,14,0.00
2013-6-12,88.2,77.1,65.8,75.4,68.7,62.8,92,76,58,29.90,29.68,16,0,16,0.00
2013-6-13,80.5,70.5,64.7,72.3,62.4,55.8,96,77,52,29.87,29.55,24,2,24,0.81
2013-6-14,79.0,68.3,56.7,60.1,56.8,53.4,90,68,46,30.05,29.87,16,1,16,0.00
2013-6-15,81.4,68.4,52.0,61.8,56.8,50.2,100,70,40,30.13,29.96,8,0,8,0.00
2013-6-16,77.4,71.2,67.6,67.6,64.3,60.0,90,79,69,29.98,29.91,17,2,17,0.04
2013-6-17,84.9,73.8,65.2,70.8,66.6,63.1,95,80,53,29.97,29.87,8,0,11,0.00
2013-6-18,81.8,70.1,64.0,68.9,64.0,56.3,93,82,54,29.98,29.83,12,0,12,0.13
2013-6-19,80.3,70.2,53.9,60.4,53.3,45.7,90,58,31,30.14,29.97,10,0,10,0.00
2013-6-20,85.7,68.7,50.5,59.1,53.6,48.6,100,64,32,30.21,30.13,6,0,6,0.00
2013-6-21,87.4,72.5,55.1,65.2,59.3,53.1,100,67,38,30.23,30.12,10,0,10,0.00
2013-6-22,89.7,75.8,62.1,75.4,66.2,60.1,94,74,45,30.16,30.04,16,0,16,0.02
2013-6-23,89.5,77.6,64.2,71.2,66.8,62.4,100,72,47,30.12,30.02,14,0,14,0.00
2013-6-24,88.2,76.7,63.4,69.6,65.9,16.7,94,71,49,30.12,29.99,13,1,16,0.00
2013-6-25,90.3,79.7,68.6,74.8,69.1,63.2,90,71,55,30.04,29.85,21,1,21,0.00
2013-6-26,85.9,75.2,66.8,72.8,68.9,64.6,100,82,59,29.92,29.78,19,1,19,1.03
2013-6-27,84.5,71.1,66.8,72.3,68.7,66.5,100,93,65,29.78,29.65,10,0,11,0.18
2013-6-28,83.6,74.9,63.2,69.3,65.3,59.5,92,73,55,29.65,29.52,18,1,18,0.01
2013-6-29,80.1,68.8,59.3,66.2,61.8,57.3,94,79,58,29.66,29.54,16,1,16,0.00
2013-6-30,82.0,70.9,62.9,69.2,64.4,60.7,95,81,59,29.82,29.66,8,0,8,0.01
2013-7-1,84.3,71.9,65.8,68.2,65.0,63.4,94,80,52,29.92,29.78,13,0,13,0.10
2013-7-2,81.4,71.8,65.2,71.7,66.6,63.4,95,85,64,30.01,29.89,10,0,10,0.01
2013-7-3,84.7,74.7,66.9,72.1,68.7,65.3,96,83,60,30.12,30.00,14,0,14,0.00
2013-7-4,75.3,72.2,69.9,70.1,68.6,66.7,94,89,77,30.17,30.09,10,0,10,0.10
2013-7-5,79.9,71.6,66.9,72.9,68.4,66.5,100,90,71,30.15,30.08,16,0,16,0.67
2013-7-6,83.2,74.6,69.4,74.7,69.2,64.1,96,84,64,30.14,30.01,19,1,21,0.02
2013-7-7,83.2,73.1,65.6,68.5,65.3,61.2,93,78,56,30.10,30.01,13,0,13,0.01
2013-7-8,83.4,72.6,63.9,73.6,67.5,61.9,96,85,66,30.12,30.04,16,0,16,2.50
2013-7-9,88.6,74.8,69.4,75.6,71.2,66.1,100,90,64,30.07,29.96,11,1,18,0.69
2013-7-10,90.3,75.4,65.5,78.4,70.7,63.8,100,87,62,29.98,29.79,32,1,32,0.13
2013-7-11,80.9,69.8,59.8,67.9,63.5,55.7,97,82,57,30.01,29.91,10,0,11,0.00
2013-7-12,81.6,68.3,57.2,65.1,59.5,54.9,93,75,48,30.08,30.00,14,1,16,0.00
2013-7-13,84.1,73.4,62.1,69.9,64.2,59.6,93,74,55,30.15,30.06,10,0,10,0.00
2013-7-14,88.8,78.1,67.6,73.9,69.5,65.2,94,76,59,30.23,30.14,4,0,9,0.00
2013-7-15,93.4,81.8,71.5,74.7,70.8,67.4,89,71,48,30.30,30.21,6,0,7,0.00
2013-7-16,96.1,82.9,69.1,75.2,71.5,67.4,98,71,44,30.30,30.22,7,0,7,0.00
2013-7-17,95.1,83.7,71.6,77.9,73.1,69.8,95,73,47,30.28,30.13,7,0,7,0.00
2013-7-18,94.7,83.2,71.5,76.8,73.3,69.7,96,74,46,30.17,30.00,10,0,10,0.00
2013-7-19,92.3,80.0,73.7,76.2,72.8,68.5,93,80,55,30.01,29.87,18,1,18,0.01
2013-7-20,81.6,75.1,70.1,74.3,70.6,67.9,95,86,71,29.91,29.83,16,1,16,0.72
2013-7-21,86.1,75.2,68.1,72.5,69.9,66.8,100,85,58,29.95,29.87,4,0,4,0.00
2013-7-22,74.2,72.0,69.9,73.5,70.2,68.4,100,94,92,29.91,29.75,11,0,11,0.32
2013-7-23,86.5,75.4,67.8,75.0,69.7,65.6,100,84,59,29.79,29.66,18,1,18,0.01
2013-7-24,78.5,69.9,59.3,67.0,60.7,54.2,91,74,50,29.99,29.75,13,1,13,0.00
2013-7-25,79.6,66.2,52.8,60.0,55.5,50.5,94,71,43,30.08,29.99,8,0,8,0.00
2013-7-26,81.1,68.2,53.2,63.5,58.2,51.8,97,73,45,30.09,29.96,8,0,8,0.00
2013-7-27,73.5,67.0,64.2,66.7,63.7,61.4,94,89,76,29.96,29.83,16,1,16,0.09
2013-7-28,74.2,64.6,54.2,61.6,54.7,49.6,96,72,47,30.06,29.84,21,1,21,0.00
2013-7-29,78.1,64.5,51.4,59.2,55.0,49.7,96,74,46,30.19,30.04,12,0,14,0.00
2013-7-30,82.8,68.1,53.3,64.7,58.5,51.9,100,74,47,30.23,30.12,5,0,5,0.00
2013-7-31,74.9,68.8,65.3,67.4,64.6,62.3,95,87,75,30.13,29.93,13,0,13,0.06
2013-8-1,82.8,72.9,66.9,67.1,64.4,59.5,95,77,49,29.94,29.87,11,1,13,0.02
2013-8-2,80.9,69.8,56.9,64.2,60.4,55.3,100,74,47,30.00,29.92,8,0,13,0.00
2013-8-3,78.3,69.6,61.5,69.9,64.8,59.2,96,85,66,30.00,29.94,7,0,10,0.20
2013-8-4,78.1,66.9,57.0,62.1,57.4,54.1,97,74,47,30.11,30.00,11,1,13,0.00
2013-8-5,77.9,64.8,51.3,61.4,55.6,49.9,100,75,44,30.13,29.98,1,0,4,0.00
2013-8-6,81.8,74.1,59.6,64.8,61.6,57.3,93,67,49,30.00,29.92,11,0,11,0.01
2013-8-7,86.5,74.1,63.5,74.1,68.3,61.1,94,83,61,29.94,29.86,8,0,13,0.00
2013-8-8,84.5,75.0,70.3,74.5,71.2,68.6,96,88,68,29.94,29.87,8,0,8,0.14
2013-8-9,81.8,72.3,64.5,71.8,68.9,62.2,100,90,60,30.02,29.87,12,0,12,0.75
2013-8-10,84.1,72.5,64.2,68.6,65.0,62.7,97,79,51,30.10,30.02,6,0,7,0.00
2013-8-11,86.1,72.6,62.3,71.5,66.1,60.8,98,82,55,30.08,30.00,10,0,11,0.00
2013-8-12,86.3,73.7,60.1,71.1,65.5,58.7,96,77,52,30.05,29.84,10,0,10,0.11
2013-8-13,78.8,70.0,56.7,70.4,62.6,50.9,96,79,53,30.01,29.79,16,2,16,0.01
2013-8-14,70.8,58.3,50.4,53.7,50.7,47.6,92,77,47,30.17,30.01,11,0,11,0.00
2013-8-15,76.5,59.8,46.4,56.9,51.4,45.0,100,77,43,30.19,30.09,7,0,7,0.00
2013-8-16,80.9,65.4,51.1,59.6,54.9,49.6,96,72,43,30.15,30.10,10,0,10,0.00
2013-8-17,81.4,66.9,55.4,65.2,58.0,53.1,93,75,46,30.20,30.14,7,0,7,0.00
2013-8-18,71.3,64.7,57.2,66.1,61.3,54.7,95,89,78,30.19,30.11,4,0,4,0.00
2013-8-19,82.4,70.8,62.3,67.1,63.6,59.8,96,80,51,30.14,30.06,7,0,7,0.00
2013-8-20,85.5,70.9,56.2,69.2,61.6,54.8,100,76,44,30.18,30.10,5,0,5,0.00
2013-8-21,83.8,68.9,60.1,70.9,64.2,58.7,97,86,57,30.17,30.07,11,0,11,0.02
2013-8-22,85.1,72.3,62.3,73.8,67.6,60.8,100,86,61,30.11,29.99,13,0,13,0.54
2013-8-23,86.5,74.6,65.5,69.2,66.2,58.4,100,77,47,30.14,30.00,13,0,13,0.80
2013-8-24,85.9,70.3,56.6,66.4,60.0,54.6,94,72,41,30.27,30.14,7,0,7,0.00
2013-8-25,84.5,70.3,56.7,66.8,60.3,55.3,100,74,40,30.35,30.22,10,0,10,0.00
2013-8-26,88.0,73.3,57.8,70.7,64.1,56.4,95,75,50,30.25,30.02,12,0,12,0.00
2013-8-27,85.3,77.0,70.8,74.3,70.4,66.7,88,80,67,30.04,29.91,12,0,12,0.00
2013-8-28,88.0,79.5,72.7,75.8,72.4,69.3,92,80,62,29.93,29.82,14,1,14,0.02
2013-8-29,86.3,73.8,67.4,71.9,68.8,65.7,99,86,56,30.03,29.92,7,0,7,0.00
2013-8-30,89.3,75.4,63.4,72.4,67.7,62.5,100,79,52,29.99,29.82,12,0,12,0.00
2013-8-31,87.2,76.3,68.1,73.0,69.8,66.2,100,82,55,29.84,29.75,21,1,21,0.28
2013-9-1,84.5,76.1,69.4,71.6,69.3,65.8,95,80,60,29.81,29.74,11,0,11,0.00
2013-9-2,87.6,75.3,66.9,73.3,69.2,62.2,94,82,59,29.84,29.74,14,1,14,0.02
2013-9-3,71.5,63.5,53.3,62.2,55.5,50.7,91,76,56,30.07,29.84,12,1,12,0.00
2013-9-4,82.4,64.6,48.0,61.8,55.2,46.6,100,75,46,30.14,30.06,11,0,11,0.00
2013-9-5,82.2,67.8,56.2,66.0,58.3,48.2,95,74,47,30.20,30.09,12,1,12,0.00
2013-9-6,78.3,61.0,46.2,53.3,48.5,42.3,100,68,29,30.27,30.12,8,0,8,0.00
2013-9-7,85.1,66.0,47.3,65.2,55.9,45.9,100,73,42,30.12,29.93,10,0,10,0.00
2013-9-8,87.2,75.3,66.1,70.9,66.0,63.0,90,74,56,30.00,29.90,10,0,10,0.00
2013-9-9,89.9,74.4,60.7,71.4,66.2,59.0,95,78,49,30.05,29.95,14,0,14,0.00
2013-9-10,92.9,81.7,72.5,75.9,71.8,67.9,88,73,55,30.09,30.00,17,1,17,0.00
2013-9-11,89.9,77.2,70.8,75.1,71.3,67.4,94,83,55,30.12,29.98,17,0,17,0.31
2013-9-12,76.5,72.7,65.8,71.2,68.4,60.3,94,87,75,29.98,29.82,16,1,16,0.25
2013-9-13,65.6,59.2,49.2,60.6,51.4,45.8,90,76,56,30.08,29.85,18,2,18,0.00
2013-9-14,70.8,54.7,41.2,48.9,44.9,39.6,100,73,40,30.18,30.08,11,0,11,0.00
2013-9-15,73.5,60.1,41.5,59.4,51.9,40.0,100,76,49,30.18,30.04,7,0,12,0.00
2013-9-16,72.5,62.2,54.1,59.7,55.3,50.0,96,80,50,30.30,30.04,13,1,13,0.09
2013-9-17,73.7,59.1,46.2,56.5,51.2,44.8,100,78,50,30.35,30.20,9,0,9,0.01
2013-9-18,74.2,61.1,52.5,63.7,56.7,50.0,94,86,68,30.20,30.08,5,0,5,0.00
2013-9-19,71.8,66.4,62.4,67.4,64.6,60.7,100,94,83,30.10,29.99,8,0,8,0.08
2013-9-20,84.7,74.0,66.3,71.7,68.3,65.4,100,84,61,30.01,29.78,14,1,14,0.00
2013-9-21,73.7,65.5,55.0,66.9,60.6,50.9,97,85,52,29.84,29.67,21,1,21,1.22
2013-9-22,67.6,56.1,47.4,51.5,47.7,44.3,95,75,47,30.04,29.84,12,1,12,0.00
2013-9-23,66.0,52.2,39.9,50.6,44.2,38.3,100,77,49,30.15,30.04,13,0,13,0.00
2013-9-24,70.6,53.1,37.9,50.8,45.0,36.6,100,77,44,30.14,29.96,7,0,7,0.00
2013-9-25,76.8,57.7,43.3,56.9,49.9,41.7,100,78,41,29.97,29.87,7,0,7,0.00
2013-9-26,81.4,62.6,47.9,58.2,50.8,43.1,100,71,28,30.08,29.92,10,0,10,0.00
2013-9-27,80.1,60.8,44.5,56.6,50.6,42.9,100,73,39,30.18,30.08,9,0,9,0.00
2013-9-28,78.8,61.3,46.0,58.3,52.1,44.7,100,75,41,30.21,30.08,10,0,10,0.00
2013-9-29,74.7,62.1,51.3,62.6,56.9,49.5,99,84,64,30.09,29.99,8,0,8,0.00
2013-9-30,73.3,64.2,59.2,62.0,59.4,57.5,95,85,63,30.04,29.95,12,0,12,0.00
2013-10-1,80.9,65.4,52.3,63.2,57.6,51.2,100,79,48,30.09,30.00,11,1,14,0.00
2013-10-2,83.6,67.8,54.7,67.8,61.7,53.3,100,83,54,30.11,30.02,7,0,7,0.00
2013-10-3,81.1,70.2,64.8,69.8,65.7,62.7,96,86,62,30.08,30.00,15,0,15,0.02
2013-10-4,84.5,69.8,59.6,68.5,64.1,58.5,100,84,52,30.09,30.00,13,0,13,0.00
2013-10-5,82.4,72.0,62.7,70.0,66.3,61.2,96,83,62,30.06,29.93,18,1,18,0.00
2013-10-6,82.2,70.7,53.6,68.3,64.8,51.6,96,83,58,29.93,29.68,31,2,31,0.99
2013-10-7,62.0,53.3,46.1,52.0,46.6,42.3,96,79,51,30.17,29.78,18,1,18,0.59
2013-10-8,69.3,52.9,39.2,50.1,44.0,37.6,100,75,42,30.29,30.17,10,0,10,0.00
2013-10-9,72.0,55.3,42.2,48.5,44.3,39.6,95,70,34,30.29,30.19,9,0,9,0.00
2013-10-10,77.9,55.3,40.6,55.3,45.5,39.3,100,74,40,30.21,30.07,8,0,8,0.00
2013-10-11,78.5,58.7,44.5,56.3,49.2,42.6,95,74,34,30.12,30.01,12,0,12,0.00
2013-10-12,72.3,60.9,50.5,60.5,55.5,49.1,98,83,65,30.14,30.03,7,0,7,0.00
2013-10-13,71.3,61.8,55.7,63.0,58.1,54.0,100,88,72,30.27,30.13,10,0,10,0.02
2013-10-14,72.5,59.1,48.0,56.0,51.5,46.4,95,78,52,30.32,30.20,13,0,13,0.00
2013-10-15,70.1,59.6,49.8,61.8,55.9,47.9,100,88,73,30.21,29.95,10,0,10,0.00
2013-10-16,65.3,62.7,55.7,63.1,60.3,50.2,96,92,82,29.96,29.86,14,1,14,0.15
2013-10-17,55.9,49.3,41.8,50.2,46.0,40.2,96,88,81,29.97,29.84,16,1,16,0.19
2013-10-18,65.0,51.2,39.8,48.0,43.1,38.0,96,76,44,30.05,29.95,17,1,17,0.00
2013-10-19,52.5,45.3,41.6,48.8,42.6,38.9,95,90,81,30.00,29.79,13,1,13,0.10
2013-10-20,62.0,48.5,37.5,44.2,38.9,34.7,91,71,46,30.05,29.99,18,2,21,0.00
2013-10-21,67.1,52.8,36.6,45.6,39.4,34.4,94,64,35,30.05,29.86,24,2,24,0.00
2013-10-22,57.2,44.6,32.8,48.7,34.7,25.4,91,70,36,30.04,29.87,13,1,13,0.12
2013-10-23,45.1,39.9,35.9,38.2,35.9,32.8,92,86,64,30.03,29.78,20,1,20,0.39
2013-10-24,43.1,37.9,34.7,36.3,32.7,29.4,91,82,64,30.25,30.02,16,1,16,0.04
2013-10-25,49.6,37.7,28.4,45.5,29.2,16.1,100,73,44,30.43,30.25,19,1,19,0.00
2013-10-26,47.9,40.7,32.7,33.4,27.5,24.5,78,60,43,30.30,29.94,24,3,24,0.00
2013-10-27,56.9,42.5,29.4,38.0,32.0,26.8,93,69,37,30.12,30.04,12,0,12,0.00
2013-10-28,63.4,43.2,28.1,40.0,32.3,25.8,98,70,32,30.31,30.12,6,0,6,0.00
2013-10-29,60.7,46.2,31.3,43.4,37.0,29.0,100,73,43,30.40,30.23,6,0,6,0.00
2013-10-30,63.1,54.1,47.4,57.5,49.1,40.0,94,83,72,30.23,30.05,8,0,8,0.00
2013-10-31,64.7,61.1,59.2,59.3,57.4,55.5,96,88,72,30.05,29.35,25,2,25,0.18
2013-11-1,63.7,56.7,50.8,61.7,47.6,42.0,94,73,50,29.71,29.33,37,4,37,0.70
2013-11-2,53.5,49.2,44.2,44.8,40.2,35.9,87,71,58,30.06,29.71,15,1,15,0.00
2013-11-3,53.3,43.3,37.6,40.8,36.7,30.4,93,79,52,30.44,30.05,7,0,7,0.00
2013-11-4,55.3,43.5,31.6,37.5,32.5,27.3,85,66,46,30.50,30.36,8,0,8,0.00
2013-11-5,62.0,51.8,44.2,41.7,37.7,34.8,72,59,44,30.47,30.27,7,0,7,0.00
2013-11-6,70.3,57.0,43.5,58.1,45.7,32.4,93,68,43,30.27,29.92,24,2,24,0.47
2013-11-7,56.5,43.2,33.7,54.5,34.1,25.4,93,72,43,30.22,29.94,19,2,19,0.16
2013-11-8,46.7,37.5,29.1,34.2,30.5,26.0,93,77,50,30.37,30.18,19,1,19,0.04
2013-11-9,60.7,45.1,30.6,36.0,28.9,25.6,90,58,28,30.29,30.01,38,4,38,0.00
2013-11-10,51.6,42.4,28.7,37.2,30.7,25.1,87,64,44,30.37,30.04,21,3,21,0.00
2013-11-11,50.7,39.3,25.7,43.0,31.6,23.1,92,76,41,30.35,30.08,21,2,21,0.14
2013-11-12,34.9,28.9,24.4,32.1,23.4,19.4,94,80,69,30.61,30.20,18,3,18,0.13
2013-11-13,38.3,29.6,21.9,23.0,18.6,15.4,84,65,40,30.65,30.43,14,2,19,0.00
2013-11-14,53.3,38.3,25.7,24.7,19.6,15.6,75,49,23,30.43,30.19,19,2,19,0.00
2013-11-15,52.9,41.6,28.5,40.7,26.3,18.9,75,56,32,30.24,30.14,17,1,17,0.00
2013-11-16,59.3,52.5,45.2,51.7,46.4,39.6,89,80,71,30.19,29.95,14,1,14,0.00
2013-11-17,60.9,57.5,52.2,59.8,53.1,40.3,98,86,52,29.95,29.50,37,5,37,0.83
2013-11-18,52.3,45.8,36.3,40.7,34.7,25.7,81,66,46,30.17,29.73,27,5,27,0.00
2013-11-19,41.6,34.9,26.9,27.2,24.9,22.2,83,67,52,30.41,30.17,11,1,11,0.00
2013-11-20,48.6,36.0,26.6,29.4,25.1,21.4,83,66,43,30.43,30.30,10,1,10,0.00
2013-11-21,56.9,47.4,37.6,43.9,34.2,25.8,83,60,49,30.39,30.22,12,0,12,0.01
2013-11-22,53.3,48.1,36.6,53.3,45.3,29.4,100,90,74,30.35,30.14,20,3,20,0.31
2013-11-23,38.2,30.8,21.0,29.7,22.0,7.0,89,71,49,30.52,30.30,21,4,21,0.00
2013-11-24,27.8,20.2,14.9,10.2,7.6,2.5,73,59,38,30.69,30.52,17,2,17,0.00
2013-11-25,37.9,27.8,15.9,24.5,13.2,9.4,78,56,35,30.60,30.22,16,1,16,0.00
2013-11-26,35.8,32.7,29.8,32.0,29.6,24.8,92,88,64,30.23,29.90,4,0,7,0.34
2013-11-27,30.4,27.0,23.6,27.8,19.9,12.2,91,75,52,30.28,29.87,18,2,18,0.00
2013-11-28,31.9,26.7,19.1,21.1,17.2,13.1,81,68,51,30.48,30.28,16,1,16,0.00
2013-11-29,37.3,29.6,20.6,22.8,19.1,13.9,77,65,51,30.67,30.47,8,0,8,0.00
2013-11-30,47.4,33.8,24.5,28.3,23.7,18.0,79,67,44,30.60,30.23,14,0,14,0.00
2013-12-1,46.4,37.6,30.0,32.9,28.5,24.1,80,70,56,30.23,29.97,12,0,12,0.00
2013-12-2,49.4,41.2,33.2,38.6,34.4,28.8,88,77,64,29.97,29.83,5,0,5,0.01
2013-12-3,56.2,44.1,34.1,44.2,38.8,31.1,95,82,63,29.91,29.84,7,0,7,0.01
2013-12-4,63.7,53.8,42.9,52.1,46.6,38.9,88,77,64,29.94,29.79,13,1,13,0.00
2013-12-5,60.7,52.2,34.4,59.1,47.9,31.4,95,85,69,30.14,29.78,19,1,19,0.89
2013-12-6,34.4,31.0,26.6,31.5,28.2,23.5,92,89,87,30.38,30.10,14,2,14,0.47
2013-12-7,27.6,23.5,16.1,23.5,16.0,10.1,88,73,57,30.65,30.38,12,1,12,0.02
2013-12-8,31.8,24.2,16.1,31.6,19.9,10.0,100,83,73,30.62,30.05,11,1,11,0.05
2013-12-9,35.6,31.8,26.4,35.2,27.3,18.6,100,84,72,30.24,30.01,19,3,19,0.00
2013-12-10,28.7,23.7,19.7,18.9,15.4,11.1,85,71,52,30.37,30.15,22,3,22,0.07
2013-12-11,35.5,23.8,14.8,20.2,14.3,8.6,79,67,52,30.51,30.29,18,2,18,0.00
2013-12-12,21.6,17.0,12.8,11.8,5.1,-2.7,76,60,34,30.59,30.37,17,2,19,0.00
2013-12-13,38.0,28.2,19.9,23.2,14.8,7.1,70,57,44,30.37,30.22,16,2,18,0.00
2013-12-14,39.5,34.4,31.2,39.2,32.1,20.5,100,91,60,30.24,29.73,20,1,20,0.39
2013-12-15,34.9,27.4,24.8,33.6,21.9,13.7,95,80,60,30.13,29.78,26,4,26,0.00
2013-12-16,29.7,25.8,23.5,27.5,21.1,17.5,92,82,72,30.21,30.04,13,0,13,0.08
2013-12-17,35.0,29.8,27.3,30.9,25.1,21.9,92,83,70,30.17,29.99,14,2,17,0.01
2013-12-18,31.0,27.2,23.0,22.8,19.6,16.6,82,73,59,30.28,30.10,19,2,19,0.00
2013-12-19,55.1,46.3,29.5,38.3,28.4,16.6,61,50,42,30.12,29.99,27,5,27,0.00
2013-12-20,58.3,51.5,47.4,53.2,41.9,28.2,92,71,42,29.99,29.86,19,2,21,0.09
2013-12-21,66.0,59.3,55.9,61.7,56.3,52.6,94,90,78,29.86,29.48,26,3,26,0.79
2013-12-22,66.3,57.0,47.9,59.8,50.2,40.6,93,79,58,29.99,29.46,31,5,31,0.64
2013-12-23,47.4,34.8,28.7,40.5,27.8,18.8,90,76,63,30.38,29.99,18,2,18,0.02
2013-12-24,28.7,19.4,13.5,21.3,11.6,5.3,87,71,61,30.62,30.35,17,1,17,0.00
2013-12-25,32.2,24.1,14.3,24.5,13.6,7.3,81,66,39,30.59,30.22,15,1,15,0.00
2013-12-26,38.5,32.6,26.6,25.2,21.2,17.6,76,63,44,30.38,30.18,24,3,24,0.00
2013-12-27,46.7,37.0,26.6,29.1,24.4,19.2,75,61,49,30.44,30.30,19,2,19,0.00
2013-12-28,52.9,43.9,37.3,31.9,27.9,24.1,66,53,43,30.30,30.05,19,2,19,0.00
2013-12-29,42.8,40.2,34.9,39.5,33.8,25.5,92,79,50,30.04,29.77,18,1,19,0.36
2013-12-30,34.9,28.7,25.3,30.3,21.2,17.2,83,73,64,30.25,29.98,18,2,18,0.00
2013-12-31,28.8,25.5,22.7,18.6,16.5,12.9,82,69,59,30.38,30.17,25,3,25,0.00
2014-1-1,41.5,30.5,20.3,27.7,22.5,14.7,82,72,52,30.35,30.07,6,0,12,0.00
2014-1-2,31.9,23.8,11.1,26.4,19.7,5.6,89,84,78,30.20,29.80,24,3,24,0.27